createdAt,value
2022-12-08T00:00:39.243Z,80.25
2022-12-08T00:03:06.037Z,79.92
2022-12-08T00:05:32.921Z,80.91
2022-12-08T00:07:59.379Z,81.76
2022-12-08T00:10:48.460Z,81.53
2022-12-08T00:13:12.449Z,81.32
2022-12-08T00:15:38.862Z,80.76
2022-12-08T00:18:05.395Z,80.21
2022-12-08T00:20:31.906Z,81.59
2022-12-08T00:22:58.396Z,81.55
2022-12-08T00:25:25.193Z,82.96
2022-12-08T00:27:51.589Z,83.87
2022-12-08T00:30:17.944Z,82.96
2022-12-08T00:32:44.341Z,83.73
2022-12-08T00:35:10.901Z,82.71
2022-12-08T00:37:37.259Z,82.64
2022-12-08T00:40:04.389Z,81.51
2022-12-08T00:42:31.077Z,82.29
2022-12-08T00:44:57.523Z,83.13
2022-12-08T00:47:25.082Z,81.44
2022-12-08T00:49:51.881Z,81.17
2022-12-08T00:52:18.643Z,82.67
2022-12-08T00:54:45.049Z,81.74
2022-12-08T00:57:11.477Z,81.99
2022-12-08T00:59:37.900Z,81.96
2022-12-08T01:02:04.297Z,82.05
2022-12-08T01:04:30.838Z,82.33
2022-12-08T01:06:57.350Z,82.85
2022-12-08T01:09:23.753Z,83.32
2022-12-08T01:11:50.431Z,82.61
2022-12-08T01:14:16.785Z,82.09
2022-12-08T01:16:43.513Z,81.11
2022-12-08T01:19:12.321Z,81.19
2022-12-08T01:21:39.209Z,82.22
2022-12-08T01:24:06.241Z,81.33
2022-12-08T01:26:32.575Z,81.16
2022-12-08T01:28:59.551Z,79.58
2022-12-08T01:31:26.502Z,81.07
2022-12-08T01:33:53.109Z,81.91
2022-12-08T01:36:25.897Z,82.18
2022-12-08T01:38:53.582Z,82.19
2022-12-08T01:41:23.029Z,81.02
2022-12-08T01:44:24.605Z,82.09
2022-12-08T01:46:53.101Z,82.24
2022-12-08T01:49:24.282Z,81.62
2022-12-08T01:51:59.566Z,82.14
2022-12-08T01:54:31.911Z,83.05
2022-12-08T01:57:06.350Z,83.92
2022-12-08T01:59:36.599Z,84.13
2022-12-08T02:02:03.872Z,83.37
2022-12-08T02:04:30.676Z,83.46
2022-12-08T02:06:57.916Z,82.81
2022-12-08T02:09:25.024Z,82.87
2022-12-08T02:11:52.346Z,82.10
2022-12-08T02:14:18.927Z,81.99
2022-12-08T02:17:15.216Z,83.16
2022-12-08T02:19:41.431Z,83.38
2022-12-08T02:22:36.857Z,83.69
2022-12-08T02:25:28.890Z,84.22
2022-12-08T02:28:08.518Z,84.66
2022-12-08T02:31:02.584Z,84.98
2022-12-08T02:34:06.112Z,84.26
2022-12-08T02:36:50.868Z,84.46
2022-12-08T02:39:28.599Z,84.41
2022-12-08T02:42:20.973Z,84.57
2022-12-08T02:44:55.315Z,84.52
2022-12-08T02:47:25.300Z,84.55
2022-12-08T02:49:51.824Z,84.25
2022-12-08T02:52:18.162Z,84.62
2022-12-08T02:54:53.461Z,84.84
2022-12-08T02:57:43.163Z,84.56
2022-12-08T03:00:14.107Z,84.68
2022-12-08T03:02:43.983Z,84.87
2022-12-08T03:05:45.663Z,85.01
2022-12-08T03:08:22.531Z,85.21
2022-12-08T03:11:05.049Z,85.28
2022-12-08T03:13:45.100Z,84.48
2022-12-08T03:16:18.192Z,84.20
2022-12-08T03:18:50.790Z,84.33
2022-12-08T03:21:19.428Z,84.65
2022-12-08T03:23:48.043Z,84.47
2022-12-08T03:26:24.969Z,84.29
2022-12-08T03:28:51.356Z,84.54
2022-12-08T03:31:19.747Z,84.81
2022-12-08T03:33:51.296Z,85.12
2022-12-08T03:36:18.499Z,84.73
2022-12-08T03:38:46.264Z,84.51
2022-12-08T03:41:13.356Z,84.84
2022-12-08T03:43:39.673Z,84.67
2022-12-08T03:46:06.060Z,84.76
2022-12-08T03:48:32.818Z,84.92
2022-12-08T03:50:59.232Z,84.41
2022-12-08T03:53:25.605Z,84.63
2022-12-08T03:55:54.083Z,84.72
2022-12-08T03:58:20.700Z,84.39
2022-12-08T04:00:47.085Z,84.67
2022-12-08T04:03:13.694Z,82.87
2022-12-08T04:05:40.160Z,83.38
2022-12-08T04:08:06.551Z,83.11
2022-12-08T04:10:33.258Z,83.51
2022-12-08T04:12:59.584Z,83.92
2022-12-08T04:15:25.991Z,84.20
2022-12-08T04:17:52.544Z,84.38
2022-12-08T04:20:18.969Z,84.90
2022-12-08T04:22:45.311Z,84.91
2022-12-08T04:25:12.312Z,85.15
2022-12-08T04:27:38.747Z,85.17
2022-12-08T04:30:06.274Z,85.26
2022-12-08T04:32:32.872Z,85.28
2022-12-08T04:34:59.540Z,85.17
2022-12-08T04:37:25.868Z,85.21
2022-12-08T04:39:52.385Z,85.14
2022-12-08T04:42:18.754Z,85.30
2022-12-08T04:44:45.150Z,85.11
2022-12-08T04:47:11.583Z,85.66
2022-12-08T04:49:37.995Z,85.98
2022-12-08T04:52:04.819Z,86.01
2022-12-08T04:54:31.219Z,86.54
2022-12-08T04:56:57.677Z,86.66
2022-12-08T04:59:24.000Z,86.72
2022-12-08T05:01:50.472Z,86.98
2022-12-08T05:04:16.937Z,86.45
2022-12-08T05:06:43.368Z,86.83
2022-12-08T05:09:09.807Z,86.95
2022-12-08T05:11:36.165Z,86.62
2022-12-08T05:14:02.663Z,87.02
2022-12-08T05:16:29.221Z,86.61
2022-12-08T05:18:55.756Z,86.13
2022-12-08T05:21:22.431Z,86.52
2022-12-08T05:23:48.823Z,86.94
2022-12-08T05:26:15.222Z,86.90
2022-12-08T05:28:43.088Z,87.38
2022-12-08T05:31:14.467Z,87.65
2022-12-08T05:33:41.464Z,87.55
2022-12-08T05:36:09.215Z,87.96
2022-12-08T05:38:35.849Z,87.78
2022-12-08T05:41:02.380Z,87.82
2022-12-08T05:43:29.096Z,86.06
2022-12-08T05:45:55.550Z,85.02
2022-12-08T05:48:22.072Z,85.35
2022-12-08T05:50:49.299Z,83.57
2022-12-08T05:53:20.283Z,83.68
2022-12-08T05:55:47.349Z,83.85
2022-12-08T05:58:19.200Z,83.92
2022-12-08T06:00:47.228Z,84.75
2022-12-08T06:03:16.087Z,85.50
2022-12-08T06:05:44.398Z,85.88
2022-12-08T06:08:11.695Z,86.14
2022-12-08T06:10:42.859Z,86.23
2022-12-08T06:13:09.647Z,85.96
2022-12-08T06:15:36.901Z,85.45
2022-12-08T06:18:03.745Z,85.17
2022-12-08T06:20:30.322Z,84.77
2022-12-08T06:22:57.230Z,83.02
2022-12-08T06:25:24.348Z,82.71
2022-12-08T06:27:50.990Z,82.10
2022-12-08T06:30:18.198Z,81.66
2022-12-08T06:32:44.634Z,81.96
2022-12-08T06:35:11.029Z,80.08
2022-12-08T06:37:37.511Z,80.98
2022-12-08T06:40:04.570Z,80.20
2022-12-08T06:42:31.212Z,80.76
2022-12-08T06:44:57.982Z,80.74
2022-12-08T06:47:26.338Z,79.85
2022-12-08T06:49:53.042Z,80.51
2022-12-08T06:52:19.566Z,80.66
2022-12-08T06:54:46.115Z,81.12
2022-12-08T06:57:12.600Z,81.38
2022-12-08T06:59:39.257Z,81.64
2022-12-08T07:02:05.764Z,80.89
2022-12-08T07:04:32.256Z,80.72
2022-12-08T07:06:58.656Z,79.64
2022-12-08T07:09:25.048Z,80.11
2022-12-08T07:11:51.481Z,81.05
2022-12-08T07:14:18.064Z,80.97
2022-12-08T07:16:44.573Z,80.93
2022-12-08T07:19:11.035Z,80.21
2022-12-08T07:21:37.542Z,81.50
2022-12-08T07:24:04.165Z,80.27
2022-12-08T07:26:30.760Z,81.00
2022-12-08T07:28:57.162Z,81.82
2022-12-08T07:31:25.260Z,81.44
2022-12-08T07:33:52.725Z,81.53
2022-12-08T07:36:19.523Z,81.74
2022-12-08T07:38:45.978Z,82.09
2022-12-08T07:41:18.558Z,82.19
2022-12-08T07:43:45.548Z,82.02
2022-12-08T07:46:13.343Z,81.96
2022-12-08T07:48:40.220Z,81.88
2022-12-08T07:51:06.975Z,81.41
2022-12-08T07:53:33.486Z,81.06
2022-12-08T07:56:00.344Z,80.50
2022-12-08T07:58:27.386Z,79.86
2022-12-08T08:00:53.936Z,78.58
2022-12-08T08:03:20.646Z,79.30
2022-12-08T08:05:47.552Z,80.25
2022-12-08T08:08:14.041Z,79.39
2022-12-08T08:10:40.472Z,79.64
2022-12-08T08:13:07.350Z,80.48
2022-12-08T08:15:33.947Z,79.97
2022-12-08T08:18:00.398Z,79.30
2022-12-08T08:20:27.216Z,79.77
2022-12-08T08:22:53.593Z,79.52
2022-12-08T08:25:21.194Z,79.54
2022-12-08T08:27:47.609Z,77.28
2022-12-08T08:30:20.319Z,78.01
2022-12-08T08:32:47.790Z,78.50
2022-12-08T08:35:14.566Z,78.34
2022-12-08T08:37:45.600Z,77.60
2022-12-08T08:40:15.283Z,78.53
2022-12-08T08:42:41.753Z,79.94
2022-12-08T08:45:08.647Z,79.00
2022-12-08T08:47:35.147Z,76.53
2022-12-08T08:50:01.977Z,76.99
2022-12-08T08:52:28.691Z,76.11
2022-12-08T08:54:55.054Z,77.50
2022-12-08T08:57:25.461Z,78.00
2022-12-08T08:59:52.033Z,78.92
2022-12-08T09:02:20.206Z,78.54
2022-12-08T09:04:47.248Z,77.06
2022-12-08T09:07:14.301Z,79.63
2022-12-08T09:09:41.081Z,79.03
2022-12-08T09:12:08.162Z,79.59
2022-12-08T09:14:34.775Z,78.07
2022-12-08T09:17:01.622Z,78.63
2022-12-08T09:19:28.632Z,78.08
2022-12-08T09:21:55.021Z,79.29
2022-12-08T09:24:21.420Z,79.06
2022-12-08T09:26:51.000Z,78.23
2022-12-08T09:29:35.602Z,77.53
2022-12-08T09:32:04.166Z,76.45
2022-12-08T09:34:40.275Z,76.53
2022-12-08T09:37:07.079Z,76.61
2022-12-08T09:39:33.584Z,76.84
2022-12-08T09:42:02.863Z,74.76
2022-12-08T09:44:41.701Z,74.16
2022-12-08T09:47:23.616Z,76.54
2022-12-08T09:50:01.207Z,77.03
2022-12-08T09:52:37.832Z,75.86
2022-12-08T09:55:30.235Z,75.05
2022-12-08T09:58:12.356Z,76.76
2022-12-08T10:00:40.222Z,76.44
2022-12-08T10:03:16.414Z,74.46
2022-12-08T10:06:21.882Z,77.44
2022-12-08T10:09:13.801Z,77.72
2022-12-08T10:12:09.397Z,77.96
2022-12-08T10:15:00.521Z,74.48
2022-12-08T10:17:44.856Z,76.82
2022-12-08T10:20:15.856Z,76.03
2022-12-08T10:22:45.716Z,74.22
2022-12-08T10:25:21.088Z,75.68
2022-12-08T10:27:53.526Z,74.04
2022-12-08T10:30:21.991Z,74.45
2022-12-08T10:32:51.262Z,73.86
2022-12-08T10:35:21.127Z,75.96
2022-12-08T10:38:02.926Z,76.21
2022-12-08T10:40:40.721Z,75.73
2022-12-08T10:43:17.882Z,73.78
2022-12-08T10:45:44.774Z,74.26
2022-12-08T10:48:17.268Z,75.10
2022-12-08T10:50:46.279Z,73.70
2022-12-08T10:53:14.444Z,75.34
2022-12-08T10:55:47.094Z,74.25
2022-12-08T10:58:39.956Z,74.07
2022-12-08T11:01:12.777Z,76.20
2022-12-08T11:03:53.993Z,75.80
2022-12-08T11:06:29.369Z,75.78
2022-12-08T11:09:02.558Z,74.38
2022-12-08T11:12:01.150Z,74.94
2022-12-08T11:14:30.621Z,75.60
2022-12-08T11:17:08.183Z,77.15
2022-12-08T11:19:39.573Z,74.71
2022-12-08T11:22:37.562Z,74.64
2022-12-08T11:25:18.762Z,75.50
2022-12-08T11:27:48.608Z,74.45
2022-12-08T11:30:39.991Z,76.70
2022-12-08T11:33:27.274Z,74.99
2022-12-08T11:36:09.812Z,74.24
2022-12-08T11:38:41.794Z,75.92
2022-12-08T11:41:16.099Z,75.89
2022-12-08T11:44:12.832Z,77.26
2022-12-08T11:47:12.733Z,75.21
2022-12-08T11:49:42.193Z,74.08
2022-12-08T11:52:22.457Z,75.23
2022-12-08T11:55:22.756Z,75.08
2022-12-08T11:57:51.339Z,74.73
2022-12-08T12:00:18.370Z,74.16
2022-12-08T12:02:53.784Z,74.32
2022-12-08T12:06:13.229Z,74.86
2022-12-08T12:09:06.375Z,74.97
2022-12-08T12:12:00.190Z,73.49
2022-12-08T12:14:56.041Z,74.60
2022-12-08T12:17:41.315Z,74.36
2022-12-08T12:20:23.110Z,74.01
2022-12-08T12:22:56.489Z,75.33
2022-12-08T12:25:26.745Z,75.95
2022-12-08T12:28:06.381Z,75.97
2022-12-08T12:30:59.160Z,73.74
2022-12-08T12:33:26.336Z,74.39
2022-12-08T12:35:57.330Z,74.05
2022-12-08T12:38:35.001Z,75.46
2022-12-08T12:41:04.175Z,73.32
2022-12-08T12:43:39.596Z,74.99
2022-12-08T12:46:24.689Z,73.14
2022-12-08T12:48:52.150Z,74.78
2022-12-08T12:51:43.663Z,73.57
2022-12-08T12:54:25.263Z,74.93
2022-12-08T12:56:57.132Z,74.06
2022-12-08T12:59:29.358Z,73.85
2022-12-08T13:01:56.124Z,72.50
2022-12-08T13:04:36.804Z,71.91
2022-12-08T13:07:04.613Z,73.20
2022-12-08T13:09:38.850Z,74.54
2022-12-08T13:12:19.640Z,72.18
2022-12-08T13:14:49.478Z,74.06
2022-12-08T13:17:32.030Z,73.78
2022-12-08T13:20:02.002Z,73.15
2022-12-08T13:23:01.197Z,73.00
2022-12-08T13:25:44.709Z,75.21
2022-12-08T13:28:29.802Z,75.10
2022-12-08T13:30:59.167Z,73.53
2022-12-08T13:33:31.365Z,72.14
2022-12-08T13:36:27.830Z,74.03
2022-12-08T13:38:57.981Z,73.55
2022-12-08T13:41:36.034Z,74.09
2022-12-08T13:58:36.271Z,74.04
2022-12-08T14:01:21.878Z,74.50
2022-12-08T14:04:22.132Z,73.45
2022-12-08T14:06:45.130Z,73.99
2022-12-08T14:09:16.073Z,73.57
2022-12-08T14:11:46.924Z,73.61
2022-12-08T14:14:45.949Z,75.56
2022-12-08T14:17:13.537Z,75.69
2022-12-08T14:19:44.296Z,74.94
2022-12-08T14:22:14.942Z,75.12
2022-12-08T14:24:48.637Z,76.04
2022-12-08T14:27:18.415Z,76.36
2022-12-08T14:29:48.453Z,76.83
2022-12-08T14:32:37.698Z,75.33
2022-12-08T14:35:07.088Z,75.68
2022-12-08T14:37:46.374Z,77.28
2022-12-08T14:40:22.946Z,76.84
2022-12-08T14:42:54.016Z,77.21
2022-12-08T14:45:21.256Z,77.50
2022-12-08T14:47:48.047Z,78.36
2022-12-08T14:50:41.074Z,78.96
2022-12-08T14:53:18.002Z,78.93
2022-12-08T14:55:46.931Z,77.34
2022-12-08T14:58:28.926Z,78.40
2022-12-08T15:00:57.516Z,78.90
2022-12-08T15:03:27.002Z,79.68
2022-12-08T15:05:58.207Z,78.34
2022-12-08T15:08:24.654Z,77.94
2022-12-08T15:11:13.522Z,77.67
2022-12-08T15:13:46.792Z,77.96
2022-12-08T15:16:40.094Z,78.47
2022-12-08T15:19:23.373Z,77.76
2022-12-08T15:21:51.026Z,76.53
2022-12-08T15:24:25.678Z,76.32
2022-12-08T15:26:53.319Z,76.46
2022-12-08T15:29:26.065Z,77.42
2022-12-08T15:31:55.692Z,77.52
2022-12-08T15:34:22.522Z,77.14
2022-12-08T15:36:50.401Z,76.64
2022-12-08T15:39:22.554Z,77.07
2022-12-08T15:41:48.998Z,78.49
2022-12-08T15:44:15.335Z,77.95
2022-12-08T15:46:41.751Z,79.10
2022-12-08T15:49:17.040Z,77.18
2022-12-08T15:51:44.023Z,77.25
2022-12-08T15:54:10.810Z,75.72
2022-12-08T15:57:10.495Z,75.54
2022-12-08T15:59:29.288Z,75.72
2022-12-08T16:01:55.687Z,75.79
2022-12-08T16:07:29.913Z,76.70
2022-12-08T16:09:57.117Z,75.59
2022-12-08T16:12:26.437Z,76.72
2022-12-08T16:17:40.371Z,76.83
2022-12-08T16:20:17.111Z,76.56
2022-12-08T16:22:56.866Z,76.51
2022-12-08T16:25:46.171Z,76.13
2022-12-08T16:28:52.196Z,76.28
2022-12-08T16:31:02.871Z,75.41
2022-12-08T16:33:29.311Z,75.84
2022-12-08T16:35:56.514Z,76.45
2022-12-08T16:38:22.952Z,77.20
2022-12-08T16:40:49.264Z,78.21
2022-12-08T16:43:15.729Z,77.35
2022-12-08T16:45:44.967Z,76.70
2022-12-08T16:48:14.373Z,76.77
2022-12-08T16:50:44.939Z,78.29
2022-12-08T16:53:12.332Z,78.11
2022-12-08T16:55:39.832Z,77.25
2022-12-08T16:58:06.661Z,77.69
2022-12-08T17:00:34.266Z,78.85
2022-12-08T17:03:00.592Z,79.50
2022-12-08T17:05:27.126Z,77.05
2022-12-08T17:07:54.236Z,77.21
2022-12-08T17:10:27.200Z,75.90
2022-12-08T17:12:54.861Z,76.88
2022-12-08T17:15:25.239Z,77.66
2022-12-08T17:17:52.201Z,77.25
2022-12-08T17:20:28.935Z,77.84
2022-12-08T17:22:57.291Z,76.76
2022-12-08T17:25:24.249Z,75.79
2022-12-08T17:27:50.646Z,76.58
2022-12-08T17:30:17.258Z,77.92
2022-12-08T17:32:43.727Z,77.27
2022-12-08T17:35:10.652Z,77.49
2022-12-08T17:37:37.069Z,78.49
2022-12-08T17:40:04.334Z,78.85
2022-12-08T17:42:31.279Z,79.47
2022-12-08T17:44:57.932Z,79.26
2022-12-08T17:47:24.419Z,79.74
2022-12-08T17:49:50.894Z,80.58
2022-12-08T17:52:17.295Z,80.33
2022-12-08T17:54:43.609Z,80.09
2022-12-08T17:57:09.986Z,80.89
2022-12-08T17:59:36.582Z,81.13
2022-12-08T18:02:03.111Z,81.16
2022-12-08T18:04:29.664Z,81.48
2022-12-08T18:06:56.145Z,81.61
2022-12-08T18:09:22.472Z,81.91
2022-12-08T18:11:49.249Z,81.75
2022-12-08T18:14:16.523Z,82.22
2022-12-08T18:16:46.419Z,82.28
2022-12-08T18:19:13.919Z,82.69
2022-12-08T18:21:41.861Z,82.77
2022-12-08T18:24:10.020Z,82.23
2022-12-08T18:26:36.363Z,80.57
2022-12-08T18:29:03.485Z,80.62
2022-12-08T18:31:30.158Z,80.72
2022-12-08T18:33:56.523Z,79.91
2022-12-08T18:36:25.116Z,80.85
2022-12-08T18:38:53.181Z,81.55
2022-12-08T18:41:22.281Z,81.66
2022-12-08T18:43:48.894Z,82.29
2022-12-08T18:46:15.468Z,82.01
2022-12-08T18:48:44.236Z,81.72
2022-12-08T18:51:16.004Z,81.76
2022-12-08T18:53:43.456Z,82.21
2022-12-08T18:56:21.300Z,82.97
2022-12-08T18:58:48.003Z,82.01
2022-12-08T19:01:15.060Z,82.27
2022-12-08T19:03:48.894Z,82.29
2022-12-08T19:06:27.872Z,83.10
2022-12-08T19:08:54.157Z,83.59
2022-12-08T19:11:23.439Z,82.94
2022-12-08T19:13:51.056Z,83.66
2022-12-08T19:16:17.513Z,83.50
2022-12-08T19:18:44.021Z,84.12
2022-12-08T19:21:11.149Z,83.97
2022-12-08T19:23:37.594Z,84.27
2022-12-08T19:26:04.719Z,84.17
2022-12-08T19:28:31.999Z,84.73
2022-12-08T19:30:58.557Z,83.73
2022-12-08T19:33:24.926Z,83.50
2022-12-08T19:35:52.883Z,83.14
2022-12-08T19:38:19.682Z,82.56
2022-12-08T19:40:46.007Z,83.20
2022-12-08T19:43:18.713Z,84.08
2022-12-08T19:45:45.148Z,83.97
2022-12-08T19:48:11.707Z,82.70
2022-12-08T19:50:38.984Z,83.42
2022-12-08T19:53:09.711Z,84.19
2022-12-08T19:55:36.377Z,83.57
2022-12-08T19:58:03.938Z,83.89
2022-12-08T20:00:32.103Z,84.32
2022-12-08T20:02:59.623Z,83.84
2022-12-08T20:05:26.507Z,82.59
2022-12-08T20:07:53.095Z,82.21
2022-12-08T20:10:30.625Z,83.08
2022-12-08T20:12:56.944Z,83.72
2022-12-08T20:15:23.282Z,84.36
2022-12-08T20:17:49.689Z,83.48
2022-12-08T20:20:16.178Z,83.14
2022-12-08T20:22:42.691Z,80.86
2022-12-08T20:25:12.765Z,81.81
2022-12-08T20:27:39.680Z,82.00
2022-12-08T20:30:10.547Z,82.82
2022-12-08T20:32:39.757Z,82.84
2022-12-08T20:35:07.089Z,83.09
2022-12-08T20:37:33.647Z,83.52
2022-12-08T20:40:00.180Z,83.87
2022-12-08T20:42:26.656Z,84.09
2022-12-08T20:44:53.030Z,84.22
2022-12-08T20:47:19.488Z,84.28
2022-12-08T20:49:47.179Z,84.13
2022-12-08T20:52:13.533Z,84.21
2022-12-08T20:54:40.272Z,84.55
2022-12-08T20:57:06.647Z,84.30
2022-12-08T20:59:33.156Z,84.12
2022-12-08T21:01:59.771Z,84.05
2022-12-08T21:04:26.960Z,83.55
2022-12-08T21:06:53.377Z,82.38
2022-12-08T21:09:20.269Z,82.74
2022-12-08T21:11:46.890Z,82.89
2022-12-08T21:14:13.444Z,81.69
2022-12-08T21:16:40.113Z,82.76
2022-12-08T21:19:06.947Z,83.37
2022-12-08T21:21:33.503Z,82.12
2022-12-08T21:24:00.228Z,82.71
2022-12-08T21:26:26.900Z,83.63
2022-12-08T21:28:54.266Z,84.06
2022-12-08T21:31:21.681Z,83.49
2022-12-08T21:33:48.821Z,83.95
2022-12-08T21:36:18.765Z,84.40
2022-12-08T21:38:46.267Z,84.59
2022-12-08T21:41:21.286Z,84.56
2022-12-08T21:43:47.680Z,83.52
2022-12-08T21:46:15.971Z,83.81
2022-12-08T21:48:42.815Z,83.65
2022-12-08T21:51:09.601Z,84.03
2022-12-08T21:53:36.437Z,83.30
2022-12-08T21:56:08.398Z,83.20
2022-12-08T21:58:35.046Z,83.59
2022-12-08T22:01:08.098Z,83.77
2022-12-08T22:03:35.780Z,83.58
2022-12-08T22:06:06.735Z,83.83
2022-12-08T22:08:33.269Z,84.19
2022-12-08T22:10:59.909Z,84.54
2022-12-08T22:13:26.571Z,84.58
2022-12-08T22:16:05.321Z,84.76
2022-12-08T22:18:32.798Z,84.94
2022-12-08T22:20:59.205Z,84.95
2022-12-08T22:23:25.817Z,84.65
2022-12-08T22:25:56.853Z,83.81
2022-12-08T22:28:23.468Z,84.35
2022-12-08T22:30:49.974Z,83.40
2022-12-08T22:33:16.437Z,83.64
2022-12-08T22:35:43.440Z,83.53
2022-12-08T22:38:10.042Z,83.68
2022-12-08T22:40:40.475Z,83.91
2022-12-08T22:43:07.025Z,83.87
2022-12-08T22:45:33.743Z,84.07
2022-12-08T22:48:00.279Z,83.46
2022-12-08T22:50:26.986Z,82.87
2022-12-08T22:52:53.660Z,80.97
2022-12-08T22:55:20.512Z,81.86
2022-12-08T22:57:46.874Z,82.02
2022-12-08T23:00:13.540Z,82.70
2022-12-08T23:02:40.086Z,82.91
2022-12-08T23:05:07.294Z,82.37
2022-12-08T23:07:33.872Z,82.25
2022-12-08T23:10:00.399Z,82.46
2022-12-08T23:12:26.817Z,82.88
2022-12-08T23:14:53.192Z,82.94
2022-12-08T23:17:19.568Z,82.74
2022-12-08T23:19:45.992Z,83.10
2022-12-08T23:22:12.461Z,83.67
2022-12-08T23:24:39.104Z,84.02
2022-12-08T23:27:05.554Z,83.74
2022-12-08T23:29:31.907Z,83.52
2022-12-08T23:31:58.459Z,83.67
2022-12-08T23:34:25.093Z,83.76
2022-12-08T23:36:51.609Z,84.03
2022-12-08T23:39:18.174Z,84.30
2022-12-08T23:41:44.532Z,84.25
2022-12-08T23:44:11.094Z,83.28
2022-12-08T23:46:37.829Z,82.45
2022-12-08T23:49:04.402Z,82.47
2022-12-08T23:51:31.197Z,83.13
2022-12-08T23:53:57.669Z,82.88
2022-12-08T23:56:28.626Z,83.59
2022-12-08T23:58:56.763Z,83.08
